Airfield :
LOGIN :

Register | Disclaimer

   EN    FR    IT 

 










Legend :    VFR   Marginal VFR   IFR   Intensive IFR   Very Intensive IFR
Visi :
Ceiling :
>= 8 km
>= 3000ft
5 to 8 km
1000 to 3000 ft
1500m to 5 km
500 to 1000 ft
800 to 1500m
200 to 500 ft
< 800m
< 200 ft
Symbols :   Thunderstorms  Fog  Heavy snow  Heavy precipitations  Wind > 20 kt
SIGMETs :     Misc.  Thunderstorms  Icing  Turbulence  Mountain Waves  Volcanic Ashes






- Airport Elevation : 1302 ft
- IATA code : GNB


LFLS - Grenoble / St. Geoirs

CURRENT METAR :
  • 280300Z AUTO VRB02KT 9999 SCT076 09/09 Q1021 TEMPO 0600 FG VV///

EXPIRED METARs :
  • 280230Z AUTO 10002KT 9999 BKN074 10/09 Q1021 TEMPO 0600 FG VV///
  • 280200Z AUTO VRB02KT 9999 OVC072 10/10 Q1021
  • 280130Z AUTO VRB02KT 9999 OVC072 10/10 Q1021
  • 280100Z AUTO 11003KT 030V120 9999 1100 R09/P2400 R27/0800D FEW040 SCT072 09/09 Q1022
  • 280030Z AUTO 08003KT CAVOK 09/09 Q1022
  • 280000Z AUTO 09004KT 9999 FEW034 09/09 Q1022
  • 272330Z AUTO 10005KT CAVOK 10/09 Q1022
  • 272300Z AUTO 10004KT CAVOK 10/09 Q1022
  • 272230Z AUTO 10003KT 9999 FEW070 11/11 Q1022

TAF TAF LFLS
Valid from the 28 at 03:00 until the 29 at 03:00 UTC


280200Z 2803/2903 VRB03KT CAVOK
PROB40
TEMPO 2803/2807 1500 BR BKN006
PROB30
TEMPO 2803/2807 0600 FG VV///
BECMG 2807/2809 36010KT
BECMG 2817/2819 VRB03KT
ATIS : +33 4 76 65 55 89



MET'MAP, your aeronautical weather chart ! - Copyright ORBIFLY December 2007 - Disclaimer

ORBIFLY MET'MAP TEAM :

Programming & Development : Alexandra Zaïnal
Original concept : Baudouin d'Aumeries
Technical & hardware support : Manuel Goepfert
Assistance : Marc-Olivier Méhu




SOURCES & CREDITS :

   NOAA